createdAt,value
2023-03-28T00:00:21.439Z,0.00
2023-03-28T00:01:21.368Z,0.00
2023-03-28T00:02:21.300Z,0.00
2023-03-28T00:03:21.270Z,0.00
2023-03-28T00:04:21.179Z,0.00
2023-03-28T00:05:21.167Z,0.00
2023-03-28T00:06:21.082Z,0.00
2023-03-28T00:07:20.973Z,0.00
2023-03-28T00:08:32.950Z,0.00
2023-03-28T00:10:28.090Z,0.00
2023-03-28T00:11:27.752Z,0.00
2023-03-28T00:13:34.913Z,0.00
2023-03-28T00:14:34.487Z,0.00
2023-03-28T00:16:30.555Z,0.00
2023-03-28T00:17:30.256Z,0.00
2023-03-28T00:18:30.078Z,0.00
2023-03-28T00:19:30.219Z,0.00
2023-03-28T00:20:29.907Z,0.00
2023-03-28T00:21:29.842Z,0.00
2023-03-28T00:22:29.762Z,0.00
2023-03-28T00:23:29.697Z,0.00
2023-03-28T00:24:29.623Z,0.00
2023-03-28T00:25:29.549Z,0.00
2023-03-28T00:26:29.480Z,0.00
2023-03-28T00:27:29.411Z,0.00
2023-03-28T00:28:29.346Z,0.00
2023-03-28T00:29:29.274Z,0.00
2023-03-28T00:30:29.220Z,0.00
2023-03-28T00:31:29.169Z,0.00
2023-03-28T00:32:29.137Z,0.00
2023-03-28T00:33:28.984Z,0.00
2023-03-28T00:34:28.920Z,0.00
2023-03-28T00:35:28.903Z,0.00
2023-03-28T00:36:28.774Z,0.00
2023-03-28T00:37:28.742Z,0.00
2023-03-28T00:38:28.648Z,0.00
2023-03-28T00:39:28.564Z,0.00
2023-03-28T00:40:28.496Z,0.00
2023-03-28T00:41:28.420Z,0.00
2023-03-28T00:42:28.359Z,0.00
2023-03-28T00:43:28.287Z,0.00
2023-03-28T00:44:28.210Z,0.00
2023-03-28T00:45:28.140Z,0.00
2023-03-28T00:46:28.095Z,0.00
2023-03-28T00:47:28.289Z,0.00
2023-03-28T00:48:27.930Z,0.00
2023-03-28T00:49:27.859Z,0.00
2023-03-28T00:50:27.809Z,0.00
2023-03-28T00:51:27.714Z,0.00
2023-03-28T00:52:27.643Z,0.00
2023-03-28T00:53:27.573Z,0.00
2023-03-28T00:54:27.505Z,0.00
2023-03-28T00:55:27.435Z,0.00
2023-03-28T00:56:27.369Z,0.00
2023-03-28T00:57:27.290Z,0.00
2023-03-28T00:58:27.246Z,0.00
2023-03-28T00:59:27.151Z,0.00
2023-03-28T01:00:27.083Z,0.00
2023-03-28T01:01:27.048Z,0.00
2023-03-28T01:02:26.999Z,0.00
2023-03-28T01:03:26.972Z,0.00
2023-03-28T01:04:26.794Z,0.00
2023-03-28T01:05:26.736Z,0.00
2023-03-28T01:06:26.652Z,0.00
2023-03-28T01:07:26.587Z,0.00
2023-03-28T01:08:26.531Z,0.00
2023-03-28T01:09:26.442Z,0.00
2023-03-28T01:10:26.381Z,0.00
2023-03-28T01:11:26.299Z,0.00
2023-03-28T01:12:26.232Z,0.00
2023-03-28T01:13:26.165Z,0.00
2023-03-28T01:14:26.086Z,0.00
2023-03-28T01:15:26.018Z,0.00
2023-03-28T01:16:26.017Z,0.00
2023-03-28T01:17:25.902Z,0.00
2023-03-28T01:18:25.804Z,0.00
2023-03-28T01:19:25.734Z,0.00
2023-03-28T01:20:25.666Z,0.00
2023-03-28T01:21:25.593Z,0.00
2023-03-28T01:22:25.526Z,0.00
2023-03-28T01:23:25.453Z,0.00
2023-03-28T01:24:25.383Z,0.00
2023-03-28T01:25:25.306Z,0.00
2023-03-28T01:26:25.240Z,0.00
2023-03-28T01:27:25.168Z,0.00
2023-03-28T01:28:25.107Z,0.00
2023-03-28T01:29:25.026Z,0.00
2023-03-28T01:30:24.957Z,0.00
2023-03-28T01:31:24.939Z,0.00
2023-03-28T01:32:24.863Z,0.00
2023-03-28T01:33:24.747Z,0.00
2023-03-28T01:34:24.674Z,0.00
2023-03-28T01:35:24.661Z,0.00
2023-03-28T01:36:34.087Z,0.00
2023-03-28T01:37:24.461Z,0.00
2023-03-28T01:38:24.392Z,0.00
2023-03-28T01:39:24.384Z,0.00
2023-03-28T01:40:24.250Z,0.00
2023-03-28T01:41:24.177Z,0.00
2023-03-28T01:42:24.108Z,0.00
2023-03-28T01:43:24.040Z,0.00
2023-03-28T01:44:23.963Z,0.00
2023-03-28T01:45:23.902Z,0.00
2023-03-28T01:46:23.900Z,0.00
2023-03-28T01:47:23.782Z,0.00
2023-03-28T01:48:23.679Z,0.00
2023-03-28T01:49:23.614Z,0.00
2023-03-28T01:50:23.538Z,0.00
2023-03-28T01:51:23.471Z,0.00
2023-03-28T01:52:23.398Z,0.00
2023-03-28T01:53:23.339Z,0.00
2023-03-28T01:54:23.266Z,0.00
2023-03-28T01:55:23.191Z,0.00
2023-03-28T01:56:23.188Z,0.00
2023-03-28T01:57:23.121Z,0.00
2023-03-28T01:58:22.987Z,0.00
2023-03-28T01:59:22.913Z,0.00
2023-03-28T02:00:22.839Z,0.00
2023-03-28T02:01:22.833Z,0.00
2023-03-28T02:02:22.736Z,0.00
2023-03-28T02:03:22.664Z,0.00
2023-03-28T02:04:22.549Z,0.00
2023-03-28T02:05:22.490Z,0.00
2023-03-28T02:06:22.408Z,0.00
2023-03-28T02:07:22.337Z,0.00
2023-03-28T02:08:22.265Z,0.00
2023-03-28T02:09:24.173Z,0.00
2023-03-28T02:10:22.151Z,0.00
2023-03-28T02:11:22.056Z,0.00
2023-03-28T02:12:21.988Z,0.00
2023-03-28T02:13:21.915Z,0.00
2023-03-28T02:14:21.853Z,0.00
2023-03-28T02:15:21.800Z,0.00
2023-03-28T02:16:21.745Z,0.00
2023-03-28T02:17:21.635Z,0.00
2023-03-28T02:18:21.588Z,0.00
2023-03-28T02:19:21.493Z,0.00
2023-03-28T02:20:21.422Z,0.00
2023-03-28T02:21:21.385Z,0.00
2023-03-28T02:22:21.288Z,0.00
2023-03-28T02:23:21.216Z,0.00
2023-03-28T02:24:21.152Z,0.00
2023-03-28T02:25:21.080Z,0.00
2023-03-28T02:26:20.999Z,0.00
2023-03-28T02:27:20.936Z,0.00
2023-03-28T02:28:20.861Z,0.00
2023-03-28T02:29:20.794Z,0.00
2023-03-28T02:30:20.723Z,0.00
2023-03-28T02:31:20.664Z,0.00
2023-03-28T02:32:20.577Z,0.00
2023-03-28T02:33:20.510Z,0.00
2023-03-28T02:34:20.441Z,0.00
2023-03-28T02:35:20.380Z,0.00
2023-03-28T02:36:20.297Z,0.00
2023-03-28T02:37:20.225Z,0.00
2023-03-28T02:38:20.154Z,0.00
2023-03-28T02:39:20.085Z,0.00
2023-03-28T02:40:20.015Z,0.00
2023-03-28T02:41:19.965Z,0.00
2023-03-28T02:42:19.874Z,0.00
2023-03-28T02:43:19.805Z,0.00
2023-03-28T02:44:20.949Z,0.00
2023-03-28T02:45:19.696Z,0.00
2023-03-28T02:46:19.644Z,0.00
2023-03-28T02:47:19.517Z,0.00
2023-03-28T02:48:19.448Z,0.00
2023-03-28T02:49:19.378Z,0.00
2023-03-28T02:50:19.305Z,0.00
2023-03-28T02:51:19.239Z,0.00
2023-03-28T02:52:19.163Z,0.00
2023-03-28T02:53:19.092Z,0.00
2023-03-28T02:54:19.025Z,0.00
2023-03-28T02:55:18.970Z,0.00
2023-03-28T02:56:18.883Z,0.00
2023-03-28T02:57:18.837Z,0.00
2023-03-28T02:58:18.736Z,0.00
2023-03-28T02:59:18.671Z,0.00
2023-03-28T03:00:18.695Z,0.00
2023-03-28T03:01:18.530Z,0.00
2023-03-28T03:02:18.459Z,0.00
2023-03-28T03:03:18.421Z,0.00
2023-03-28T03:04:18.319Z,0.00
2023-03-28T03:05:18.245Z,0.00
2023-03-28T03:06:18.173Z,0.00
2023-03-28T03:07:18.112Z,0.00
2023-03-28T03:08:18.037Z,0.00
2023-03-28T03:09:17.975Z,0.00
2023-03-28T03:20:52.752Z,0.00
2023-03-28T03:21:52.669Z,0.00
2023-03-28T03:23:56.976Z,0.00
2023-03-28T03:24:56.899Z,0.00
2023-03-28T03:27:01.204Z,0.00
2023-03-28T03:28:01.175Z,0.00
2023-03-28T03:29:01.063Z,0.00
2023-03-28T03:30:00.990Z,0.00
2023-03-28T03:31:00.937Z,0.00
2023-03-28T03:32:00.858Z,0.00
2023-03-28T03:33:00.855Z,0.00
2023-03-28T03:34:00.709Z,0.00
2023-03-28T03:35:00.646Z,0.00
2023-03-28T03:36:00.870Z,0.00
2023-03-28T03:37:00.490Z,0.00
2023-03-28T03:38:00.419Z,0.00
2023-03-28T03:39:00.346Z,0.00
2023-03-28T03:40:00.285Z,0.00
2023-03-28T03:41:00.204Z,0.00
2023-03-28T03:42:00.175Z,0.00
2023-03-28T03:43:00.065Z,0.00
2023-03-28T03:44:00.008Z,0.00
2023-03-28T03:44:59.923Z,0.00
2023-03-28T03:46:00.007Z,0.00
2023-03-28T03:46:59.783Z,0.00
2023-03-28T03:47:59.771Z,0.00
2023-03-28T03:48:59.651Z,0.00
2023-03-28T03:49:59.566Z,0.00
2023-03-28T03:50:59.507Z,0.00
2023-03-28T03:51:59.422Z,0.00
2023-03-28T03:52:59.347Z,0.00
2023-03-28T03:53:59.287Z,0.00
2023-03-28T03:54:59.209Z,0.00
2023-03-28T03:55:59.207Z,0.00
2023-03-28T03:56:59.109Z,0.00
2023-03-28T03:57:58.992Z,0.00
2023-03-28T03:58:58.929Z,0.00
2023-03-28T03:59:58.856Z,0.00
2023-03-28T04:00:58.792Z,0.00
2023-03-28T04:01:58.785Z,0.00
2023-03-28T04:02:58.685Z,0.00
2023-03-28T04:03:58.602Z,0.00
2023-03-28T04:04:58.511Z,0.00
2023-03-28T04:05:58.724Z,0.00
2023-03-28T04:06:58.352Z,0.00
2023-03-28T04:07:58.286Z,0.00
2023-03-28T04:08:58.217Z,0.00
2023-03-28T04:09:58.146Z,0.00
2023-03-28T04:10:58.075Z,0.00
2023-03-28T04:11:58.015Z,0.00
2023-03-28T04:12:57.933Z,0.00
2023-03-28T04:13:57.873Z,0.00
2023-03-28T04:14:57.786Z,0.00
2023-03-28T04:15:57.960Z,0.00
2023-03-28T04:16:57.654Z,0.00
2023-03-28T04:17:57.593Z,0.00
2023-03-28T04:18:57.512Z,0.00
2023-03-28T04:19:57.439Z,0.00
2023-03-28T04:20:57.364Z,0.00
2023-03-28T04:21:57.652Z,0.00
2023-03-28T04:22:57.222Z,0.00
2023-03-28T04:23:57.153Z,0.00
2023-03-28T04:24:57.081Z,0.00
2023-03-28T04:25:57.112Z,0.00
2023-03-28T04:26:56.954Z,0.00
2023-03-28T04:27:56.875Z,0.00
2023-03-28T04:28:56.804Z,0.00
2023-03-28T04:29:56.727Z,0.00
2023-03-28T04:30:56.662Z,0.00
2023-03-28T04:31:56.646Z,0.00
2023-03-28T04:32:56.542Z,0.00
2023-03-28T04:33:56.448Z,0.00
2023-03-28T04:34:56.369Z,0.00
2023-03-28T04:35:56.353Z,0.00
2023-03-28T04:36:56.233Z,0.00
2023-03-28T04:37:56.162Z,0.00
2023-03-28T04:38:56.091Z,0.00
2023-03-28T04:39:56.024Z,0.00
2023-03-28T04:40:55.955Z,4.00
2023-03-28T04:41:55.986Z,4.00
2023-03-28T04:42:55.807Z,0.00
2023-03-28T04:43:55.736Z,4.00
2023-03-28T04:44:55.679Z,4.00
2023-03-28T04:45:55.626Z,4.00
2023-03-28T04:46:55.527Z,4.00
2023-03-28T04:47:55.517Z,4.00
2023-03-28T04:48:56.804Z,4.00
2023-03-28T04:49:55.316Z,8.00
2023-03-28T04:50:55.241Z,8.00
2023-03-28T04:51:55.171Z,8.00
2023-03-28T04:52:55.104Z,8.00
2023-03-28T04:53:55.037Z,12.00
2023-03-28T04:54:54.973Z,12.00
2023-03-28T04:55:54.886Z,16.00
2023-03-28T04:56:54.849Z,20.00
2023-03-28T04:57:54.755Z,20.00
2023-03-28T04:58:54.671Z,24.00
2023-03-28T04:59:54.608Z,28.00
2023-03-28T05:00:54.533Z,32.00
2023-03-28T05:01:54.506Z,36.00
2023-03-28T05:02:54.467Z,36.00
2023-03-28T05:03:54.320Z,44.00
2023-03-28T05:04:54.246Z,48.00
2023-03-28T05:05:54.184Z,52.00
2023-03-28T05:06:54.104Z,60.00
2023-03-28T05:07:54.039Z,60.00
2023-03-28T05:08:53.960Z,68.00
2023-03-28T05:09:53.891Z,72.00
2023-03-28T05:10:53.820Z,80.00
2023-03-28T05:11:53.748Z,88.00
2023-03-28T05:12:53.677Z,92.00
2023-03-28T05:13:53.607Z,96.00
2023-03-28T05:14:53.537Z,108.00
2023-03-28T05:15:53.497Z,116.00
2023-03-28T05:16:53.403Z,124.00
2023-03-28T05:17:53.346Z,140.00
2023-03-28T05:18:53.268Z,148.00
2023-03-28T05:19:53.179Z,156.00
2023-03-28T05:20:53.103Z,160.00
2023-03-28T05:21:53.039Z,168.00
2023-03-28T05:22:52.970Z,176.00
2023-03-28T05:23:52.890Z,184.00
2023-03-28T05:24:52.828Z,196.00
2023-03-28T05:25:52.761Z,204.00
2023-03-28T05:26:52.685Z,212.00
2023-03-28T05:28:00.514Z,220.00
2023-03-28T05:29:56.941Z,240.00
2023-03-28T05:30:56.856Z,256.00
2023-03-28T05:33:01.264Z,276.00
2023-03-28T05:34:01.136Z,288.00
2023-03-28T05:36:05.521Z,308.00
2023-03-28T05:37:05.343Z,316.00
2023-03-28T05:39:09.679Z,320.00
2023-03-28T05:40:09.605Z,352.00
2023-03-28T05:42:13.897Z,396.00
2023-03-28T05:43:13.825Z,416.00
2023-03-28T05:44:13.773Z,432.00
2023-03-28T05:45:13.692Z,460.00
2023-03-28T05:46:13.631Z,488.00
2023-03-28T05:47:13.541Z,528.00
2023-03-28T05:48:13.510Z,536.00
2023-03-28T05:49:13.423Z,520.00
2023-03-28T05:50:13.354Z,524.00
2023-03-28T05:51:13.263Z,536.00
2023-03-28T05:52:13.200Z,540.00
2023-03-28T05:53:13.134Z,532.00
2023-03-28T05:54:13.052Z,528.00
2023-03-28T05:55:12.980Z,524.00
2023-03-28T05:56:12.902Z,536.00
2023-03-28T05:57:12.878Z,548.00
2023-03-28T05:58:12.809Z,556.00
2023-03-28T05:59:12.688Z,568.00
2023-03-28T06:00:12.638Z,580.00
2023-03-28T06:01:12.549Z,588.00
2023-03-28T06:02:12.476Z,600.00
2023-03-28T06:03:17.132Z,616.00
2023-03-28T06:04:12.373Z,628.00
2023-03-28T06:05:12.307Z,636.00
2023-03-28T06:06:12.200Z,648.00
2023-03-28T06:07:12.122Z,656.00
2023-03-28T06:08:12.080Z,668.00
2023-03-28T06:09:11.984Z,684.00
2023-03-28T06:10:11.927Z,692.00
2023-03-28T06:11:11.839Z,700.00
2023-03-28T06:12:11.777Z,704.00
2023-03-28T06:13:11.713Z,716.00
2023-03-28T06:14:11.639Z,728.00
2023-03-28T06:15:11.572Z,740.00
2023-03-28T06:16:11.485Z,748.00
2023-03-28T06:17:11.469Z,756.00
2023-03-28T06:18:11.415Z,760.00
2023-03-28T06:19:17.996Z,828.00
2023-03-28T06:20:11.257Z,836.00
2023-03-28T06:21:11.139Z,848.00
2023-03-28T06:22:11.064Z,860.00
2023-03-28T06:23:10.996Z,868.00
2023-03-28T06:24:10.922Z,880.00
2023-03-28T06:25:10.850Z,884.00
2023-03-28T06:26:10.777Z,900.00
2023-03-28T06:27:10.736Z,908.00
2023-03-28T06:28:10.636Z,916.00
2023-03-28T06:29:10.585Z,924.00
2023-03-28T06:30:10.547Z,936.00
2023-03-28T06:31:10.467Z,952.00
2023-03-28T06:32:10.358Z,960.00
2023-03-28T06:33:10.288Z,968.00
2023-03-28T06:34:10.221Z,980.00
2023-03-28T06:35:10.152Z,988.00
2023-03-28T06:36:10.110Z,996.00
2023-03-28T06:37:10.025Z,1004.00
2023-03-28T06:38:09.977Z,1016.00
2023-03-28T06:39:09.864Z,1028.00
2023-03-28T06:40:09.805Z,1036.00
2023-03-28T06:41:09.726Z,1044.00
2023-03-28T06:42:09.662Z,1048.00
2023-03-28T06:43:09.581Z,1056.00
2023-03-28T06:44:09.509Z,1068.00
2023-03-28T06:45:09.449Z,1076.00
2023-03-28T06:46:09.474Z,1084.00
2023-03-28T06:47:09.308Z,1096.00
2023-03-28T06:48:09.281Z,1100.00
2023-03-28T06:49:09.165Z,1112.00
2023-03-28T06:50:09.097Z,1120.00
2023-03-28T06:51:09.017Z,1132.00
2023-03-28T06:52:08.950Z,1140.00
2023-03-28T06:53:08.879Z,1144.00
2023-03-28T06:54:08.824Z,1152.00
2023-03-28T06:55:08.749Z,1164.00
2023-03-28T06:56:08.666Z,1176.00
2023-03-28T06:57:08.626Z,1180.00
2023-03-28T06:58:08.540Z,1184.00
2023-03-28T06:59:08.464Z,1188.00
2023-03-28T07:00:08.382Z,1196.00
2023-03-28T07:01:08.322Z,1216.00
2023-03-28T07:02:08.276Z,1216.00
2023-03-28T07:03:08.218Z,1232.00
2023-03-28T07:04:08.221Z,1232.00
2023-03-28T07:05:08.050Z,1240.00
2023-03-28T07:06:07.974Z,1260.00
2023-03-28T07:07:07.904Z,1268.00
2023-03-28T07:08:07.839Z,1276.00
2023-03-28T07:09:07.762Z,1280.00
2023-03-28T07:10:07.693Z,1292.00
2023-03-28T07:11:07.629Z,1296.00
2023-03-28T07:12:07.558Z,1308.00
2023-03-28T07:13:07.474Z,1312.00
2023-03-28T07:14:07.405Z,1324.00
2023-03-28T07:15:07.336Z,1336.00
2023-03-28T07:16:07.314Z,1340.00
2023-03-28T07:17:07.201Z,1348.00
2023-03-28T07:18:07.197Z,1364.00
2023-03-28T07:19:07.063Z,1376.00
2023-03-28T07:20:06.988Z,1304.00
2023-03-28T07:21:07.080Z,1192.00
2023-03-28T07:22:06.868Z,1200.00
2023-03-28T07:32:05.728Z,1268.00
2023-03-28T08:32:42.820Z,1748.00
2023-03-28T08:33:42.711Z,1780.00
2023-03-28T09:17:01.515Z,3208.00
2023-03-28T09:18:01.500Z,3344.00
2023-03-28T09:32:11.582Z,2708.00
2023-03-28T09:33:11.462Z,3216.00
2023-03-28T09:44:17.292Z,2328.00
2023-03-28T09:45:17.214Z,2460.00
2023-03-28T09:50:26.038Z,980.00
2023-03-28T09:51:25.935Z,1048.00
2023-03-28T10:08:38.811Z,2308.00
2023-03-28T10:09:38.717Z,2340.00
2023-03-28T10:10:38.654Z,2424.00
2023-03-28T10:11:38.574Z,2564.00
2023-03-28T10:12:38.525Z,2744.00
2023-03-28T10:13:38.479Z,3032.00
2023-03-28T10:14:38.390Z,2516.00
2023-03-28T10:15:38.338Z,2672.00
2023-03-28T10:16:38.238Z,3732.00
2023-03-28T10:17:38.210Z,3552.00
2023-03-28T10:18:38.115Z,3260.00
2023-03-28T10:19:38.087Z,2004.00
2023-03-28T10:20:37.964Z,1852.00
2023-03-28T10:21:37.901Z,1724.00
2023-03-28T10:22:37.834Z,1628.00
2023-03-28T10:23:37.775Z,1620.00
2023-03-28T10:24:37.753Z,1480.00
2023-03-28T10:25:37.643Z,1316.00
2023-03-28T10:26:37.559Z,1232.00
2023-03-28T10:27:37.493Z,1300.00
2023-03-28T10:28:37.429Z,1304.00
2023-03-28T10:29:37.405Z,1296.00
2023-03-28T10:30:37.292Z,1296.00
2023-03-28T10:31:37.256Z,1208.00
2023-03-28T10:32:37.198Z,1228.00
2023-03-28T10:33:37.083Z,2832.00
2023-03-28T10:34:37.046Z,2800.00
2023-03-28T10:35:36.978Z,2820.00
2023-03-28T10:36:36.886Z,2868.00
2023-03-28T10:37:36.812Z,2928.00
2023-03-28T10:38:36.760Z,2948.00
2023-03-28T10:39:36.674Z,2960.00
2023-03-28T10:40:36.627Z,2984.00
2023-03-28T10:41:36.535Z,3000.00
2023-03-28T10:42:36.527Z,3096.00
2023-03-28T10:43:36.450Z,3160.00
2023-03-28T10:44:36.355Z,3228.00
2023-03-28T10:45:36.270Z,3284.00
2023-03-28T10:46:36.315Z,3444.00
2023-03-28T10:47:36.181Z,3504.00
2023-03-28T10:48:36.073Z,3640.00
2023-03-28T10:49:35.998Z,2120.00
2023-03-28T10:50:36.842Z,2140.00
2023-03-28T10:51:35.868Z,2112.00
2023-03-28T10:52:35.794Z,2008.00
2023-03-28T10:53:35.728Z,1992.00
2023-03-28T10:54:35.660Z,1960.00
2023-03-28T10:55:35.589Z,1980.00
2023-03-28T10:56:35.556Z,3076.00
2023-03-28T10:57:35.455Z,2252.00
2023-03-28T10:58:35.414Z,1672.00
2023-03-28T10:59:35.320Z,1612.00
2023-03-28T11:00:35.254Z,2112.00
2023-03-28T11:01:35.212Z,3044.00
2023-03-28T11:02:35.201Z,2004.00
2023-03-28T11:03:35.112Z,1884.00
2023-03-28T11:04:34.993Z,2780.00
2023-03-28T11:05:34.925Z,3240.00
2023-03-28T11:06:34.849Z,3088.00
2023-03-28T11:07:34.778Z,1368.00
2023-03-28T11:08:34.722Z,1180.00
2023-03-28T11:09:42.309Z,1240.00
2023-03-28T11:11:27.952Z,2048.00
2023-03-28T11:12:28.596Z,2508.00
2023-03-28T11:14:32.157Z,2272.00
2023-03-28T11:15:32.122Z,2156.00
2023-03-28T11:23:42.835Z,2516.00
2023-03-28T11:24:42.764Z,2500.00
2023-03-28T11:40:30.472Z,1844.00
2023-03-28T11:41:30.365Z,1864.00
2023-03-28T11:46:37.764Z,2016.00
2023-03-28T11:47:37.701Z,2068.00
2023-03-28T12:06:17.889Z,2800.00
2023-03-28T12:07:17.833Z,2400.00
2023-03-28T12:08:17.774Z,2304.00
2023-03-28T12:09:18.384Z,2080.00
2023-03-28T12:10:17.611Z,1800.00
2023-03-28T12:18:55.977Z,2428.00
2023-03-28T12:19:55.833Z,2484.00
2023-03-28T12:28:06.608Z,1888.00
2023-03-28T12:29:06.528Z,1908.00
2023-03-28T13:19:52.945Z,2128.00
2023-03-28T13:20:52.805Z,2116.00
2023-03-28T13:21:52.494Z,1860.00
2023-03-28T13:22:52.726Z,1952.00
2023-03-28T13:23:52.217Z,2092.00
2023-03-28T13:24:52.159Z,2128.00
2023-03-28T13:25:52.086Z,2088.00
2023-03-28T13:26:52.025Z,1992.00
2023-03-28T13:27:51.955Z,2096.00
2023-03-28T13:28:51.906Z,2108.00
2023-03-28T13:29:51.822Z,2196.00
2023-03-28T13:30:51.769Z,2160.00
2023-03-28T13:31:51.746Z,2164.00
2023-03-28T13:32:51.658Z,2136.00
2023-03-28T13:33:51.554Z,2152.00
2023-03-28T13:34:51.499Z,2096.00
2023-03-28T13:35:51.435Z,1908.00
2023-03-28T13:36:51.357Z,2048.00
2023-03-28T13:37:51.295Z,1992.00
2023-03-28T13:38:51.219Z,1892.00
2023-03-28T13:39:51.154Z,1876.00
2023-03-28T13:40:51.117Z,2048.00
2023-03-28T13:41:51.022Z,2112.00
2023-03-28T13:42:50.954Z,2160.00
2023-03-28T13:43:50.885Z,2280.00
2023-03-28T13:44:50.817Z,2328.00
2023-03-28T13:45:50.750Z,2328.00
2023-03-28T13:46:50.771Z,2328.00
2023-03-28T13:47:59.706Z,2288.00
2023-03-28T13:48:50.562Z,2148.00
2023-03-28T13:49:50.512Z,2164.00
2023-03-28T13:50:50.431Z,2176.00
2023-03-28T13:51:50.352Z,2076.00
2023-03-28T13:52:50.287Z,2176.00
2023-03-28T13:53:50.221Z,2140.00
2023-03-28T13:54:50.160Z,2080.00
2023-03-28T13:55:50.080Z,1996.00
2023-03-28T13:56:50.075Z,1972.00
2023-03-28T13:57:49.954Z,2028.00
2023-03-28T13:58:49.889Z,1968.00
2023-03-28T13:59:49.822Z,2012.00
2023-03-28T14:00:49.789Z,2028.00
2023-03-28T14:01:49.764Z,1952.00
2023-03-28T14:02:49.783Z,1880.00
2023-03-28T14:03:49.549Z,2060.00
2023-03-28T14:04:49.484Z,2124.00
2023-03-28T14:05:49.434Z,2168.00
2023-03-28T14:06:49.372Z,2236.00
2023-03-28T14:07:49.308Z,2164.00
2023-03-28T14:08:49.235Z,2344.00
2023-03-28T14:09:49.158Z,2384.00
2023-03-28T14:10:49.087Z,2408.00
2023-03-28T14:11:49.019Z,2340.00
2023-03-28T14:12:48.964Z,2232.00
2023-03-28T14:13:48.896Z,2228.00
2023-03-28T14:14:48.823Z,2328.00
2023-03-28T14:15:48.788Z,2188.00
2023-03-28T14:16:48.765Z,2176.00
2023-03-28T14:17:48.660Z,2228.00
2023-03-28T14:18:48.568Z,2392.00
2023-03-28T14:19:48.548Z,2412.00
2023-03-28T14:20:48.429Z,2500.00
2023-03-28T14:21:48.363Z,2492.00
2023-03-28T14:22:57.338Z,2528.00
2023-03-28T14:23:48.221Z,2572.00
2023-03-28T14:24:48.162Z,2592.00
2023-03-28T14:25:48.089Z,2468.00
2023-03-28T14:26:48.031Z,2436.00
2023-03-28T14:27:47.959Z,2448.00
2023-03-28T14:28:47.902Z,2604.00
2023-03-28T14:29:47.826Z,2600.00
2023-03-28T14:30:47.761Z,2636.00
2023-03-28T14:31:47.842Z,2640.00
2023-03-28T14:32:57.087Z,2584.00
2023-03-28T14:33:47.929Z,2584.00
2023-03-28T14:34:47.498Z,2624.00
2023-03-28T14:35:47.488Z,2624.00
2023-03-28T14:36:47.364Z,2604.00
2023-03-28T14:37:47.298Z,2608.00
2023-03-28T14:38:47.243Z,2600.00
2023-03-28T14:39:47.165Z,2576.00
2023-03-28T14:40:47.104Z,2560.00
2023-03-28T14:41:47.035Z,2536.00
2023-03-28T14:42:46.975Z,2520.00
2023-03-28T14:43:46.898Z,2504.00
2023-03-28T14:44:46.836Z,2456.00
2023-03-28T14:45:46.814Z,2356.00
2023-03-28T14:46:46.702Z,2280.00
2023-03-28T14:47:46.672Z,2316.00
2023-03-28T14:48:46.572Z,2320.00
2023-03-28T14:49:46.505Z,2320.00
2023-03-28T14:50:46.439Z,2228.00
2023-03-28T14:51:46.372Z,2192.00
2023-03-28T14:52:46.307Z,2188.00
2023-03-28T14:53:46.241Z,2228.00
2023-03-28T14:54:46.177Z,2148.00
2023-03-28T14:55:46.108Z,2024.00
2023-03-28T14:56:46.085Z,1944.00
2023-03-28T14:57:45.973Z,1904.00
2023-03-28T14:58:45.917Z,1816.00
2023-03-28T14:59:45.841Z,1800.00
2023-03-28T15:00:45.785Z,1816.00
2023-03-28T15:01:45.795Z,1916.00
2023-03-28T15:02:45.751Z,1844.00
2023-03-28T15:03:45.695Z,1592.00
2023-03-28T15:04:45.520Z,1612.00
2023-03-28T15:05:45.449Z,1704.00
2023-03-28T15:06:45.384Z,1768.00
2023-03-28T15:07:45.315Z,1748.00
2023-03-28T15:08:45.245Z,1720.00
2023-03-28T15:09:45.182Z,1712.00
2023-03-28T15:10:45.117Z,1720.00
2023-03-28T15:11:45.072Z,1712.00
2023-03-28T15:12:44.987Z,1744.00
2023-03-28T15:13:44.920Z,1712.00
2023-03-28T15:14:44.848Z,1732.00
2023-03-28T15:15:44.822Z,1720.00
2023-03-28T15:16:44.717Z,1700.00
2023-03-28T15:17:44.685Z,1704.00
2023-03-28T15:18:44.722Z,1676.00
2023-03-28T15:19:44.516Z,1604.00
2023-03-28T15:20:44.451Z,1548.00
2023-03-28T15:21:44.386Z,1512.00
2023-03-28T15:22:44.322Z,1452.00
2023-03-28T15:23:44.256Z,1392.00
2023-03-28T15:24:44.200Z,1344.00
2023-03-28T15:25:44.117Z,1344.00
2023-03-28T15:26:44.078Z,1340.00
2023-03-28T15:27:43.993Z,1332.00
2023-03-28T15:28:43.916Z,1336.00
2023-03-28T15:29:43.849Z,1332.00
2023-03-28T15:30:43.783Z,1312.00
2023-03-28T15:31:43.733Z,1300.00
2023-03-28T15:32:43.696Z,1268.00
2023-03-28T15:33:43.611Z,1216.00
2023-03-28T15:34:43.519Z,1160.00
2023-03-28T15:35:43.484Z,1100.00
2023-03-28T15:36:43.395Z,1072.00
2023-03-28T15:37:43.354Z,1040.00
2023-03-28T15:38:43.249Z,1048.00
2023-03-28T15:39:43.182Z,1076.00
2023-03-28T15:40:43.145Z,1108.00
2023-03-28T15:41:43.123Z,1148.00
2023-03-28T15:42:42.986Z,1168.00
2023-03-28T15:43:42.931Z,1200.00
2023-03-28T15:44:42.854Z,1224.00
2023-03-28T15:45:42.787Z,1256.00
2023-03-28T15:46:42.769Z,1296.00
2023-03-28T15:47:42.727Z,1348.00
2023-03-28T15:48:42.625Z,1400.00
2023-03-28T15:49:42.518Z,1372.00
2023-03-28T15:50:42.459Z,1364.00
2023-03-28T15:51:42.434Z,1336.00
2023-03-28T15:52:42.356Z,1304.00
2023-03-28T15:53:42.270Z,1232.00
2023-03-28T15:54:42.244Z,1156.00
2023-03-28T15:55:42.154Z,1104.00
2023-03-28T15:56:42.083Z,1088.00
2023-03-28T15:57:42.001Z,1080.00
2023-03-28T15:58:41.942Z,1076.00
2023-03-28T15:59:41.858Z,1080.00
2023-03-28T16:00:41.817Z,1052.00
2023-03-28T16:01:41.796Z,1008.00
2023-03-28T16:02:41.693Z,1020.00
2023-03-28T16:03:41.700Z,980.00
2023-03-28T16:04:41.522Z,940.00
2023-03-28T16:05:41.457Z,888.00
2023-03-28T16:06:41.777Z,820.00
2023-03-28T16:07:41.327Z,824.00
2023-03-28T16:08:41.279Z,688.00
2023-03-28T16:09:41.206Z,584.00
2023-03-28T16:10:41.122Z,608.00
2023-03-28T16:11:41.068Z,536.00
2023-03-28T16:12:40.993Z,524.00
2023-03-28T16:13:40.921Z,520.00
2023-03-28T16:14:40.885Z,512.00
2023-03-28T16:15:40.854Z,508.00
2023-03-28T16:16:40.775Z,516.00
2023-03-28T16:17:40.703Z,540.00
2023-03-28T16:18:40.603Z,564.00
2023-03-28T16:19:40.541Z,564.00
2023-03-28T16:20:40.459Z,668.00
2023-03-28T16:21:40.401Z,740.00
2023-03-28T16:22:40.324Z,768.00
2023-03-28T16:23:40.266Z,772.00
2023-03-28T16:24:40.189Z,772.00
2023-03-28T16:25:40.118Z,760.00
2023-03-28T16:26:40.062Z,728.00
2023-03-28T16:27:40.263Z,580.00
2023-03-28T16:28:39.923Z,548.00
2023-03-28T16:29:39.855Z,512.00
2023-03-28T16:30:39.784Z,524.00
2023-03-28T16:31:39.799Z,548.00
2023-03-28T16:32:39.661Z,564.00
2023-03-28T16:33:39.581Z,552.00
2023-03-28T16:34:39.515Z,512.00
2023-03-28T16:35:39.543Z,436.00
2023-03-28T16:36:39.476Z,420.00
2023-03-28T16:37:39.314Z,424.00
2023-03-28T16:38:39.265Z,480.00
2023-03-28T16:39:39.206Z,448.00
2023-03-28T16:40:39.113Z,448.00
2023-03-28T16:41:39.045Z,440.00
2023-03-28T16:42:38.983Z,428.00
2023-03-28T16:43:38.910Z,420.00
2023-03-28T16:44:38.851Z,420.00
2023-03-28T16:45:38.816Z,408.00
2023-03-28T16:46:38.739Z,392.00
2023-03-28T16:47:38.754Z,396.00
2023-03-28T16:48:38.595Z,396.00
2023-03-28T16:49:38.589Z,392.00
2023-03-28T16:50:38.441Z,384.00
2023-03-28T16:51:38.379Z,376.00
2023-03-28T16:52:38.426Z,372.00
2023-03-28T16:53:38.247Z,364.00
2023-03-28T16:54:38.176Z,360.00
2023-03-28T16:55:38.108Z,352.00
2023-03-28T16:56:38.088Z,344.00
2023-03-28T16:57:38.045Z,336.00
2023-03-28T16:58:38.002Z,324.00
2023-03-28T16:59:37.866Z,320.00
2023-03-28T17:00:37.772Z,312.00
2023-03-28T17:01:37.721Z,308.00
2023-03-28T17:02:37.734Z,296.00
2023-03-28T17:03:37.592Z,292.00
2023-03-28T17:04:37.513Z,284.00
2023-03-28T17:05:37.527Z,272.00
2023-03-28T17:06:37.408Z,264.00
2023-03-28T17:07:37.309Z,256.00
2023-03-28T17:08:37.245Z,248.00
2023-03-28T17:09:37.193Z,240.00
2023-03-28T17:10:37.107Z,228.00
2023-03-28T17:11:37.044Z,224.00
2023-03-28T17:12:36.980Z,216.00
2023-03-28T17:13:36.911Z,208.00
2023-03-28T17:14:36.839Z,200.00
2023-03-28T17:15:36.770Z,192.00
2023-03-28T17:16:36.750Z,180.00
2023-03-28T17:17:36.677Z,172.00
2023-03-28T17:18:36.582Z,168.00
2023-03-28T17:19:36.550Z,160.00
2023-03-28T17:20:36.435Z,156.00
2023-03-28T17:21:36.368Z,152.00
2023-03-28T17:22:36.303Z,144.00